sensor_id;sensor_type;location;lat;lon;timestamp;P1;durP1;ratioP1;P2;durP2;ratioP2
53688;SDS011;39583;54.682;30.662;2023-07-24T09:44:14;6.38;;;3.38;;
53688;SDS011;39583;54.682;30.662;2023-07-24T09:46:42;9.40;;;3.53;;
53688;SDS011;39583;54.682;30.662;2023-07-24T09:49:30;5.45;;;3.53;;
53688;SDS011;39583;54.682;30.662;2023-07-24T09:51:58;6.65;;;3.38;;
53688;SDS011;39583;54.682;30.662;2023-07-24T09:54:32;6.03;;;3.15;;
53688;SDS011;39583;54.682;30.662;2023-07-24T09:57:08;7.22;;;3.60;;
53688;SDS011;39583;54.682;30.662;2023-07-24T09:59:48;6.95;;;3.53;;
53688;SDS011;39583;54.682;30.662;2023-07-24T10:02:16;6.30;;;3.30;;
53688;SDS011;39583;54.682;30.662;2023-07-24T10:04:44;5.93;;;3.47;;
53688;SDS011;39583;54.682;30.662;2023-07-24T10:07:13;7.38;;;3.60;;
53688;SDS011;39583;54.682;30.662;2023-07-24T10:09:41;5.85;;;3.33;;
53688;SDS011;39583;54.682;30.662;2023-07-24T10:12:10;4.80;;;3.20;;
53688;SDS011;39583;54.682;30.662;2023-07-24T10:14:37;5.78;;;3.22;;
53688;SDS011;39583;54.682;30.662;2023-07-24T10:17:05;4.50;;;3.28;;
53688;SDS011;39583;54.682;30.662;2023-07-24T10:19:36;5.63;;;3.65;;
53688;SDS011;39583;54.682;30.662;2023-07-24T10:22:06;5.18;;;3.03;;
53688;SDS011;39583;54.682;30.662;2023-07-24T10:24:33;5.07;;;3.50;;
53688;SDS011;39583;54.682;30.662;2023-07-24T10:27:08;6.95;;;3.55;;
53688;SDS011;39583;54.682;30.662;2023-07-24T10:29:36;5.63;;;3.65;;
53688;SDS011;39583;54.682;30.662;2023-07-24T10:35:06;5.57;;;3.60;;
53688;SDS011;39583;54.682;30.662;2023-07-24T10:37:37;6.15;;;3.88;;
53688;SDS011;39583;54.682;30.662;2023-07-24T10:40:07;6.00;;;3.97;;
53688;SDS011;39583;54.682;30.662;2023-07-24T10:42:46;5.95;;;3.83;;
53688;SDS011;39583;54.682;30.662;2023-07-24T10:45:13;10.88;;;4.13;;
53688;SDS011;39583;54.682;30.662;2023-07-24T10:47:41;7.40;;;3.78;;
53688;SDS011;39583;54.682;30.662;2023-07-24T10:50:08;4.90;;;3.45;;
53688;SDS011;39583;54.682;30.662;2023-07-24T10:52:36;5.35;;;4.05;;
53688;SDS011;39583;54.682;30.662;2023-07-24T10:55:03;6.82;;;3.55;;
53688;SDS011;39583;54.682;30.662;2023-07-24T10:57:31;8.15;;;3.55;;
53688;SDS011;39583;54.682;30.662;2023-07-24T10:59:59;13.27;;;4.93;;
53688;SDS011;39583;54.682;30.662;2023-07-24T11:02:27;7.00;;;3.50;;
53688;SDS011;39583;54.682;30.662;2023-07-24T11:04:54;6.15;;;3.70;;
53688;SDS011;39583;54.682;30.662;2023-07-24T11:07:25;5.57;;;3.38;;
53688;SDS011;39583;54.682;30.662;2023-07-24T11:09:52;7.43;;;3.50;;
53688;SDS011;39583;54.682;30.662;2023-07-24T11:12:20;7.40;;;3.40;;
53688;SDS011;39583;54.682;30.662;2023-07-24T11:14:49;6.32;;;4.22;;
53688;SDS011;39583;54.682;30.662;2023-07-24T11:17:18;4.57;;;3.40;;
53688;SDS011;39583;54.682;30.662;2023-07-24T11:19:45;5.72;;;3.58;;
53688;SDS011;39583;54.682;30.662;2023-07-24T11:22:13;4.00;;;3.00;;
53688;SDS011;39583;54.682;30.662;2023-07-24T11:24:45;6.13;;;3.35;;
53688;SDS011;39583;54.682;30.662;2023-07-24T11:27:14;5.55;;;3.45;;
53688;SDS011;39583;54.682;30.662;2023-07-24T11:29:52;4.57;;;3.35;;
53688;SDS011;39583;54.682;30.662;2023-07-24T11:32:20;6.35;;;3.35;;
53688;SDS011;39583;54.682;30.662;2023-07-24T11:34:48;4.85;;;3.40;;
53688;SDS011;39583;54.682;30.662;2023-07-24T11:37:17;5.47;;;3.53;;
53688;SDS011;39583;54.682;30.662;2023-07-24T11:42:43;4.85;;;3.00;;
53688;SDS011;39583;54.682;30.662;2023-07-24T11:45:11;5.57;;;3.40;;
53688;SDS011;39583;54.682;30.662;2023-07-24T11:47:42;4.50;;;3.13;;
53688;SDS011;39583;54.682;30.662;2023-07-24T11:50:13;6.18;;;3.63;;
53688;SDS011;39583;54.682;30.662;2023-07-24T11:52:45;7.93;;;3.58;;
53688;SDS011;39583;54.682;30.662;2023-07-24T11:55:18;5.45;;;3.13;;
53688;SDS011;39583;54.682;30.662;2023-07-24T11:57:59;7.97;;;3.20;;
53688;SDS011;39583;54.682;30.662;2023-07-24T12:00:28;5.68;;;3.63;;
53688;SDS011;39583;54.682;30.662;2023-07-24T12:03:03;6.38;;;3.50;;
53688;SDS011;39583;54.682;30.662;2023-07-24T12:05:39;6.65;;;4.00;;
53688;SDS011;39583;54.682;30.662;2023-07-24T12:08:07;8.95;;;4.25;;
53688;SDS011;39583;54.682;30.662;2023-07-24T12:10:39;5.03;;;3.25;;
53688;SDS011;39583;54.682;30.662;2023-07-24T12:13:07;5.95;;;3.40;;
53688;SDS011;39583;54.682;30.662;2023-07-24T12:15:34;4.95;;;3.67;;
53688;SDS011;39583;54.682;30.662;2023-07-24T12:18:03;7.25;;;3.42;;
53688;SDS011;39583;54.682;30.662;2023-07-24T12:20:31;4.93;;;3.40;;
53688;SDS011;39583;54.682;30.662;2023-07-24T12:22:58;4.82;;;3.13;;
53688;SDS011;39583;54.682;30.662;2023-07-24T12:25:26;7.18;;;2.97;;
53688;SDS011;39583;54.682;30.662;2023-07-24T12:27:53;5.32;;;3.13;;
53688;SDS011;39583;54.682;30.662;2023-07-24T12:30:20;6.72;;;3.70;;
53688;SDS011;39583;54.682;30.662;2023-07-24T12:32:48;7.60;;;3.75;;
53688;SDS011;39583;54.682;30.662;2023-07-24T12:35:16;3.85;;;2.97;;
53688;SDS011;39583;54.682;30.662;2023-07-24T12:37:47;5.80;;;3.40;;
53688;SDS011;39583;54.682;30.662;2023-07-24T12:40:14;4.88;;;3.28;;
53688;SDS011;39583;54.682;30.662;2023-07-24T12:42:41;4.93;;;3.58;;
53688;SDS011;39583;54.682;30.662;2023-07-24T12:45:09;6.30;;;3.83;;
53688;SDS011;39583;54.682;30.662;2023-07-24T12:47:37;5.10;;;3.42;;
53688;SDS011;39583;54.682;30.662;2023-07-24T12:50:04;6.30;;;4.28;;
53688;SDS011;39583;54.682;30.662;2023-07-24T12:52:34;20.10;;;13.15;;
53688;SDS011;39583;54.682;30.662;2023-07-24T12:55:01;8.68;;;6.53;;
53688;SDS011;39583;54.682;30.662;2023-07-24T12:57:29;7.82;;;5.50;;
53688;SDS011;39583;54.682;30.662;2023-07-24T12:59:56;5.97;;;3.33;;
53688;SDS011;39583;54.682;30.662;2023-07-24T13:02:24;7.38;;;4.75;;
53688;SDS011;39583;54.682;30.662;2023-07-24T13:04:52;8.82;;;6.72;;
53688;SDS011;39583;54.682;30.662;2023-07-24T13:07:19;4.85;;;3.30;;
53688;SDS011;39583;54.682;30.662;2023-07-24T13:09:47;9.35;;;7.20;;
53688;SDS011;39583;54.682;30.662;2023-07-24T13:12:14;9.98;;;5.53;;
53688;SDS011;39583;54.682;30.662;2023-07-24T13:14:41;5.18;;;3.58;;
53688;SDS011;39583;54.682;30.662;2023-07-24T13:17:09;4.53;;;3.00;;
53688;SDS011;39583;54.682;30.662;2023-07-24T13:19:37;4.57;;;3.28;;
53688;SDS011;39583;54.682;30.662;2023-07-24T13:22:04;6.05;;;3.85;;
53688;SDS011;39583;54.682;30.662;2023-07-24T13:24:32;5.32;;;4.40;;
53688;SDS011;39583;54.682;30.662;2023-07-24T13:27:00;8.25;;;4.05;;
53688;SDS011;39583;54.682;30.662;2023-07-24T13:29:29;5.30;;;3.90;;
53688;SDS011;39583;54.682;30.662;2023-07-24T13:31:57;5.55;;;3.70;;
53688;SDS011;39583;54.682;30.662;2023-07-24T13:34:25;9.55;;;3.67;;
53688;SDS011;39583;54.682;30.662;2023-07-24T13:36:52;6.32;;;3.42;;
53688;SDS011;39583;54.682;30.662;2023-07-24T13:39:20;7.60;;;3.47;;
53688;SDS011;39583;54.682;30.662;2023-07-24T13:41:47;4.95;;;3.50;;
53688;SDS011;39583;54.682;30.662;2023-07-24T13:44:15;5.50;;;3.15;;
53688;SDS011;39583;54.682;30.662;2023-07-24T13:46:42;4.40;;;3.20;;
53688;SDS011;39583;54.682;30.662;2023-07-24T13:49:10;4.53;;;3.33;;
53688;SDS011;39583;54.682;30.662;2023-07-24T13:51:37;7.20;;;3.58;;
53688;SDS011;39583;54.682;30.662;2023-07-24T13:54:04;4.85;;;3.35;;
53688;SDS011;39583;54.682;30.662;2023-07-24T13:56:32;9.90;;;3.78;;
53688;SDS011;39583;54.682;30.662;2023-07-24T13:59:02;8.25;;;3.25;;
53688;SDS011;39583;54.682;30.662;2023-07-24T14:01:30;8.63;;;3.63;;
53688;SDS011;39583;54.682;30.662;2023-07-24T14:03:58;5.88;;;3.88;;
53688;SDS011;39583;54.682;30.662;2023-07-24T14:06:27;5.63;;;3.45;;
53688;SDS011;39583;54.682;30.662;2023-07-24T14:08:55;5.30;;;3.65;;
53688;SDS011;39583;54.682;30.662;2023-07-24T14:11:22;5.95;;;3.70;;
53688;SDS011;39583;54.682;30.662;2023-07-24T14:13:51;5.90;;;3.63;;
53688;SDS011;39583;54.682;30.662;2023-07-24T14:16:19;6.55;;;3.00;;
53688;SDS011;39583;54.682;30.662;2023-07-24T14:18:46;5.60;;;3.38;;
53688;SDS011;39583;54.682;30.662;2023-07-24T14:21:13;7.05;;;3.40;;
53688;SDS011;39583;54.682;30.662;2023-07-24T14:23:41;5.68;;;3.58;;
53688;SDS011;39583;54.682;30.662;2023-07-24T14:26:08;6.10;;;3.47;;
53688;SDS011;39583;54.682;30.662;2023-07-24T14:28:36;4.82;;;3.70;;
53688;SDS011;39583;54.682;30.662;2023-07-24T14:31:03;4.72;;;3.15;;
53688;SDS011;39583;54.682;30.662;2023-07-24T14:33:31;4.78;;;3.75;;
53688;SDS011;39583;54.682;30.662;2023-07-24T14:35:58;4.97;;;3.53;;
53688;SDS011;39583;54.682;30.662;2023-07-24T14:38:26;7.90;;;3.65;;
53688;SDS011;39583;54.682;30.662;2023-07-24T14:40:53;5.82;;;3.58;;
53688;SDS011;39583;54.682;30.662;2023-07-24T14:43:21;4.80;;;3.45;;
53688;SDS011;39583;54.682;30.662;2023-07-24T14:45:48;5.25;;;3.65;;
53688;SDS011;39583;54.682;30.662;2023-07-24T14:48:15;5.82;;;4.32;;
53688;SDS011;39583;54.682;30.662;2023-07-24T14:50:43;7.88;;;3.50;;
53688;SDS011;39583;54.682;30.662;2023-07-24T14:53:11;6.70;;;4.05;;
53688;SDS011;39583;54.682;30.662;2023-07-24T14:55:38;8.15;;;4.10;;
53688;SDS011;39583;54.682;30.662;2023-07-24T14:58:06;8.25;;;3.70;;
53688;SDS011;39583;54.682;30.662;2023-07-24T15:00:34;6.55;;;3.75;;
53688;SDS011;39583;54.682;30.662;2023-07-24T15:03:01;7.07;;;3.70;;
53688;SDS011;39583;54.682;30.662;2023-07-24T15:05:29;5.57;;;3.42;;
53688;SDS011;39583;54.682;30.662;2023-07-24T15:07:56;7.47;;;3.20;;
53688;SDS011;39583;54.682;30.662;2023-07-24T15:10:24;5.85;;;3.75;;
53688;SDS011;39583;54.682;30.662;2023-07-24T15:12:51;4.93;;;3.53;;
53688;SDS011;39583;54.682;30.662;2023-07-24T15:15:19;5.63;;;3.70;;
53688;SDS011;39583;54.682;30.662;2023-07-24T15:17:46;4.93;;;3.67;;
53688;SDS011;39583;54.682;30.662;2023-07-24T15:20:13;5.38;;;3.70;;
53688;SDS011;39583;54.682;30.662;2023-07-24T15:22:41;6.25;;;3.97;;
53688;SDS011;39583;54.682;30.662;2023-07-24T15:25:09;5.25;;;3.70;;
53688;SDS011;39583;54.682;30.662;2023-07-24T15:27:36;5.57;;;3.65;;
53688;SDS011;39583;54.682;30.662;2023-07-24T15:30:04;8.88;;;3.60;;
53688;SDS011;39583;54.682;30.662;2023-07-24T15:32:32;4.97;;;3.67;;
53688;SDS011;39583;54.682;30.662;2023-07-24T15:34:59;4.50;;;3.70;;
53688;SDS011;39583;54.682;30.662;2023-07-24T15:37:27;5.55;;;3.75;;
53688;SDS011;39583;54.682;30.662;2023-07-24T15:39:57;4.65;;;3.58;;
53688;SDS011;39583;54.682;30.662;2023-07-24T15:42:26;4.75;;;3.30;;
53688;SDS011;39583;54.682;30.662;2023-07-24T15:44:53;6.57;;;3.50;;
53688;SDS011;39583;54.682;30.662;2023-07-24T15:47:21;5.22;;;3.30;;
53688;SDS011;39583;54.682;30.662;2023-07-24T15:49:49;5.30;;;3.45;;
53688;SDS011;39583;54.682;30.662;2023-07-24T15:52:17;4.45;;;3.40;;
53688;SDS011;39583;54.682;30.662;2023-07-24T15:54:44;6.15;;;3.42;;
53688;SDS011;39583;54.682;30.662;2023-07-24T15:57:12;5.28;;;3.25;;
53688;SDS011;39583;54.682;30.662;2023-07-24T15:59:39;5.93;;;3.85;;
53688;SDS011;39583;54.682;30.662;2023-07-24T16:02:07;5.95;;;3.20;;
53688;SDS011;39583;54.682;30.662;2023-07-24T16:04:35;6.90;;;3.13;;
53688;SDS011;39583;54.682;30.662;2023-07-24T16:07:02;9.50;;;3.40;;
53688;SDS011;39583;54.682;30.662;2023-07-24T16:09:31;4.88;;;3.38;;
53688;SDS011;39583;54.682;30.662;2023-07-24T16:11:58;7.53;;;3.60;;
53688;SDS011;39583;54.682;30.662;2023-07-24T16:14:25;6.72;;;3.70;;
53688;SDS011;39583;54.682;30.662;2023-07-24T16:16:53;11.02;;;3.55;;
53688;SDS011;39583;54.682;30.662;2023-07-24T16:19:20;4.97;;;3.70;;
53688;SDS011;39583;54.682;30.662;2023-07-24T16:21:49;6.10;;;3.83;;
53688;SDS011;39583;54.682;30.662;2023-07-24T16:24:18;8.27;;;3.58;;
53688;SDS011;39583;54.682;30.662;2023-07-24T16:26:47;5.30;;;3.30;;
53688;SDS011;39583;54.682;30.662;2023-07-24T16:29:15;7.18;;;3.67;;
53688;SDS011;39583;54.682;30.662;2023-07-24T16:31:43;5.68;;;3.70;;
53688;SDS011;39583;54.682;30.662;2023-07-24T16:34:11;4.70;;;3.42;;
53688;SDS011;39583;54.682;30.662;2023-07-24T16:36:39;11.85;;;3.70;;
53688;SDS011;39583;54.682;30.662;2023-07-24T16:39:07;7.10;;;3.40;;
53688;SDS011;39583;54.682;30.662;2023-07-24T16:41:34;7.97;;;3.50;;
53688;SDS011;39583;54.682;30.662;2023-07-24T16:44:03;5.82;;;3.47;;
53688;SDS011;39583;54.682;30.662;2023-07-24T16:46:31;6.00;;;2.92;;
53688;SDS011;39583;54.682;30.662;2023-07-24T16:48:59;6.75;;;3.88;;
53688;SDS011;39583;54.682;30.662;2023-07-24T16:51:26;6.30;;;3.72;;
53688;SDS011;39583;54.682;30.662;2023-07-24T16:53:54;7.40;;;3.53;;
53688;SDS011;39583;54.682;30.662;2023-07-24T16:56:22;5.78;;;3.75;;
53688;SDS011;39583;54.682;30.662;2023-07-24T16:58:49;6.72;;;4.00;;
53688;SDS011;39583;54.682;30.662;2023-07-24T17:01:17;6.07;;;3.47;;
53688;SDS011;39583;54.682;30.662;2023-07-24T17:03:44;4.63;;;3.63;;
53688;SDS011;39583;54.682;30.662;2023-07-24T17:06:12;5.95;;;4.15;;
53688;SDS011;39583;54.682;30.662;2023-07-24T17:08:39;5.10;;;3.75;;
53688;SDS011;39583;54.682;30.662;2023-07-24T17:11:06;4.45;;;3.65;;
53688;SDS011;39583;54.682;30.662;2023-07-24T17:13:34;5.93;;;4.07;;
53688;SDS011;39583;54.682;30.662;2023-07-24T17:16:01;5.18;;;3.40;;
53688;SDS011;39583;54.682;30.662;2023-07-24T17:18:29;5.00;;;3.47;;
53688;SDS011;39583;54.682;30.662;2023-07-24T17:20:56;5.38;;;3.38;;
53688;SDS011;39583;54.682;30.662;2023-07-24T17:23:25;7.55;;;3.83;;
53688;SDS011;39583;54.682;30.662;2023-07-24T17:25:52;5.32;;;3.63;;
53688;SDS011;39583;54.682;30.662;2023-07-24T17:28:20;5.50;;;3.70;;
53688;SDS011;39583;54.682;30.662;2023-07-24T17:30:48;6.45;;;3.75;;
53688;SDS011;39583;54.682;30.662;2023-07-24T17:33:19;6.13;;;3.90;;
53688;SDS011;39583;54.682;30.662;2023-07-24T17:35:53;5.18;;;4.03;;
53688;SDS011;39583;54.682;30.662;2023-07-24T17:38:20;6.82;;;4.03;;
53688;SDS011;39583;54.682;30.662;2023-07-24T17:40:48;6.40;;;3.80;;
53688;SDS011;39583;54.682;30.662;2023-07-24T17:43:15;5.15;;;3.70;;
53688;SDS011;39583;54.682;30.662;2023-07-24T17:45:43;5.97;;;3.65;;
53688;SDS011;39583;54.682;30.662;2023-07-24T17:48:10;6.72;;;3.42;;
53688;SDS011;39583;54.682;30.662;2023-07-24T17:50:37;6.60;;;3.55;;
53688;SDS011;39583;54.682;30.662;2023-07-24T17:53:05;8.52;;;3.78;;
53688;SDS011;39583;54.682;30.662;2023-07-24T17:55:34;8.60;;;3.80;;
53688;SDS011;39583;54.682;30.662;2023-07-24T17:58:03;4.85;;;3.58;;
53688;SDS011;39583;54.682;30.662;2023-07-24T18:00:32;8.93;;;3.65;;
53688;SDS011;39583;54.682;30.662;2023-07-24T18:03:01;6.13;;;3.75;;
53688;SDS011;39583;54.682;30.662;2023-07-24T18:05:29;6.88;;;4.15;;
53688;SDS011;39583;54.682;30.662;2023-07-24T18:07:58;8.25;;;3.85;;
53688;SDS011;39583;54.682;30.662;2023-07-24T18:10:26;7.15;;;4.78;;
53688;SDS011;39583;54.682;30.662;2023-07-24T18:12:53;8.38;;;4.13;;
53688;SDS011;39583;54.682;30.662;2023-07-24T18:15:21;8.80;;;4.68;;
53688;SDS011;39583;54.682;30.662;2023-07-24T18:17:48;7.57;;;5.03;;
53688;SDS011;39583;54.682;30.662;2023-07-24T18:20:16;6.68;;;4.32;;
53688;SDS011;39583;54.682;30.662;2023-07-24T18:22:43;6.50;;;4.30;;
53688;SDS011;39583;54.682;30.662;2023-07-24T18:25:13;7.60;;;4.63;;
53688;SDS011;39583;54.682;30.662;2023-07-24T18:27:41;10.00;;;5.20;;
53688;SDS011;39583;54.682;30.662;2023-07-24T18:30:09;7.10;;;4.70;;
53688;SDS011;39583;54.682;30.662;2023-07-24T18:32:39;7.07;;;5.10;;
53688;SDS011;39583;54.682;30.662;2023-07-24T18:35:10;10.75;;;5.38;;
53688;SDS011;39583;54.682;30.662;2023-07-24T18:37:39;8.93;;;4.97;;
53688;SDS011;39583;54.682;30.662;2023-07-24T18:40:08;11.35;;;5.00;;
53688;SDS011;39583;54.682;30.662;2023-07-24T18:42:36;7.22;;;5.20;;
53688;SDS011;39583;54.682;30.662;2023-07-24T18:45:04;7.38;;;5.25;;
53688;SDS011;39583;54.682;30.662;2023-07-24T18:47:31;6.63;;;4.95;;
53688;SDS011;39583;54.682;30.662;2023-07-24T18:50:02;8.73;;;5.07;;
53688;SDS011;39583;54.682;30.662;2023-07-24T18:52:30;10.70;;;5.55;;
53688;SDS011;39583;54.682;30.662;2023-07-24T18:54:57;9.82;;;5.45;;
53688;SDS011;39583;54.682;30.662;2023-07-24T18:57:27;10.65;;;5.85;;
53688;SDS011;39583;54.682;30.662;2023-07-24T18:59:56;7.40;;;5.57;;
53688;SDS011;39583;54.682;30.662;2023-07-24T19:02:24;9.60;;;6.40;;
53688;SDS011;39583;54.682;30.662;2023-07-24T19:04:52;7.93;;;6.07;;
53688;SDS011;39583;54.682;30.662;2023-07-24T19:07:20;12.10;;;6.68;;
53688;SDS011;39583;54.682;30.662;2023-07-24T19:09:49;9.30;;;6.82;;
53688;SDS011;39583;54.682;30.662;2023-07-24T19:12:17;12.43;;;6.88;;
53688;SDS011;39583;54.682;30.662;2023-07-24T19:14:45;9.98;;;6.18;;
53688;SDS011;39583;54.682;30.662;2023-07-24T19:17:13;8.60;;;6.72;;
53688;SDS011;39583;54.682;30.662;2023-07-24T19:19:41;8.88;;;6.65;;
53688;SDS011;39583;54.682;30.662;2023-07-24T19:22:09;11.10;;;6.60;;
53688;SDS011;39583;54.682;30.662;2023-07-24T19:24:38;8.98;;;6.30;;
53688;SDS011;39583;54.682;30.662;2023-07-24T19:27:05;10.77;;;7.35;;
53688;SDS011;39583;54.682;30.662;2023-07-24T19:29:33;7.43;;;6.38;;
53688;SDS011;39583;54.682;30.662;2023-07-24T19:32:01;9.15;;;6.50;;
53688;SDS011;39583;54.682;30.662;2023-07-24T19:34:29;9.18;;;6.47;;
53688;SDS011;39583;54.682;30.662;2023-07-24T19:36:56;8.23;;;6.57;;
53688;SDS011;39583;54.682;30.662;2023-07-24T19:39:23;9.65;;;6.72;;
53688;SDS011;39583;54.682;30.662;2023-07-24T19:41:51;9.32;;;6.82;;
53688;SDS011;39583;54.682;30.662;2023-07-24T19:44:18;11.18;;;7.40;;
53688;SDS011;39583;54.682;30.662;2023-07-24T19:46:46;9.65;;;7.00;;
53688;SDS011;39583;54.682;30.662;2023-07-24T19:49:13;9.15;;;6.85;;
53688;SDS011;39583;54.682;30.662;2023-07-24T19:51:40;8.10;;;6.30;;
53688;SDS011;39583;54.682;30.662;2023-07-24T19:54:08;9.00;;;6.65;;
53688;SDS011;39583;54.682;30.662;2023-07-24T19:56:36;11.93;;;6.72;;
53688;SDS011;39583;54.682;30.662;2023-07-24T19:59:03;10.13;;;7.03;;
53688;SDS011;39583;54.682;30.662;2023-07-24T20:01:33;9.45;;;6.53;;
53688;SDS011;39583;54.682;30.662;2023-07-24T20:04:01;9.45;;;6.45;;
53688;SDS011;39583;54.682;30.662;2023-07-24T20:06:28;8.95;;;6.10;;
53688;SDS011;39583;54.682;30.662;2023-07-24T20:08:56;11.13;;;6.82;;
53688;SDS011;39583;54.682;30.662;2023-07-24T20:11:24;9.02;;;6.50;;
53688;SDS011;39583;54.682;30.662;2023-07-24T20:13:51;12.43;;;7.10;;
53688;SDS011;39583;54.682;30.662;2023-07-24T20:16:19;9.82;;;6.50;;
53688;SDS011;39583;54.682;30.662;2023-07-24T20:18:47;11.40;;;6.38;;
53688;SDS011;39583;54.682;30.662;2023-07-24T20:21:14;9.35;;;6.68;;
